Aviation Digital Data Service (ADDS)

Output produced by METARs form (0103 UTC 06 December 2019)
found at http://www.aviationweather.gov/metar/data/
 
TAF LHPP 051415Z 0515/0524 11004KT 0600 FZFG OVC005